createdAt,value
2023-03-07T00:00:20.801Z,1.582336
2023-03-07T00:03:46.005Z,1.471558
2023-03-07T00:07:11.127Z,1.290283
2023-03-07T00:10:36.291Z,1.270142
2023-03-07T00:14:01.481Z,1.360779
2023-03-07T00:17:26.608Z,1.411133
2023-03-07T00:20:51.799Z,1.401062
2023-03-07T00:24:16.993Z,1.37085
2023-03-07T00:27:42.162Z,1.270142
2023-03-07T00:31:07.384Z,1.360779
2023-03-07T00:34:32.470Z,1.330566
2023-03-07T00:37:57.657Z,1.360779
2023-03-07T00:41:22.833Z,1.270142
2023-03-07T00:44:47.996Z,1.340637
2023-03-07T00:48:13.184Z,1.300354
2023-03-07T00:51:38.329Z,1.260071
2023-03-07T00:55:03.498Z,1.219788
2023-03-07T00:58:28.643Z,1.300354
2023-03-07T01:01:53.791Z,1.229858
2023-03-07T01:05:18.958Z,1.179504
2023-03-07T01:08:44.095Z,1.239929
2023-03-07T01:12:09.267Z,1.239929
2023-03-07T01:15:34.424Z,1.159363
2023-03-07T01:18:59.636Z,0.99823
2023-03-07T01:22:24.824Z,0.937805
2023-03-07T01:25:49.970Z,0.907593
2023-03-07T01:29:15.135Z,0.957947
2023-03-07T01:32:40.342Z,0.796814
2023-03-07T01:36:05.580Z,0.837097
2023-03-07T01:39:30.643Z,0.857239
2023-03-07T01:42:55.786Z,0.776672
2023-03-07T01:46:20.939Z,0.756531
2023-03-07T01:49:46.184Z,0.827026
2023-03-07T01:53:11.269Z,0.726318
2023-03-07T01:56:36.450Z,0.927734
2023-03-07T02:00:01.653Z,0.857239
2023-03-07T02:03:26.773Z,0.786743
2023-03-07T02:06:51.937Z,0.837097
2023-03-07T02:10:17.125Z,0.837097
2023-03-07T02:13:42.325Z,0.605469
2023-03-07T02:17:07.492Z,0.716248
2023-03-07T02:20:32.674Z,0.74646
2023-03-07T02:23:57.870Z,0.756531
2023-03-07T02:27:23.068Z,0.696106
2023-03-07T02:30:48.327Z,0.726318
2023-03-07T02:34:13.459Z,0.675964
2023-03-07T02:37:38.654Z,0.675964
2023-03-07T02:41:03.845Z,0.645752
2023-03-07T02:44:29.033Z,0.545044
2023-03-07T02:47:54.268Z,0.514832
2023-03-07T02:51:19.413Z,0.49469
2023-03-07T02:54:44.637Z,0.534973
2023-03-07T02:58:10.817Z,0.474548
2023-03-07T03:01:36.050Z,0.474548
2023-03-07T03:05:01.264Z,0.514832
2023-03-07T03:08:26.395Z,0.49469
2023-03-07T03:11:51.583Z,0.565186
2023-03-07T03:15:16.769Z,0.595398
2023-03-07T03:18:41.962Z,0.474548
2023-03-07T03:22:07.167Z,0.575256
2023-03-07T03:25:32.334Z,0.675964
2023-03-07T03:28:57.532Z,0.504761
2023-03-07T03:32:22.789Z,0.474548
2023-03-07T03:35:48.002Z,0.474548
2023-03-07T03:39:13.267Z,0.504761
2023-03-07T03:42:38.386Z,0.464478
2023-03-07T03:46:03.548Z,0.504761
2023-03-07T03:49:28.743Z,0.565186
2023-03-07T03:52:53.926Z,0.595398
2023-03-07T03:56:19.159Z,0.565186
2023-03-07T03:59:44.332Z,0.545044
2023-03-07T04:03:09.676Z,0.514832
2023-03-07T04:06:34.732Z,0.575256
2023-03-07T04:09:59.935Z,0.575256
2023-03-07T04:13:25.149Z,0.595398
2023-03-07T04:16:50.415Z,0.595398
2023-03-07T04:20:15.540Z,0.595398
2023-03-07T04:23:40.726Z,0.645752
2023-03-07T04:27:05.955Z,0.61554
2023-03-07T04:30:31.195Z,0.575256
2023-03-07T04:33:56.362Z,0.545044
2023-03-07T04:37:21.552Z,0.61554
2023-03-07T04:40:46.821Z,0.595398
2023-03-07T04:44:12.018Z,0.534973
2023-03-07T04:47:37.230Z,0.514832
2023-03-07T04:51:02.400Z,0.565186
2023-03-07T04:54:27.596Z,0.565186
2023-03-07T04:57:52.805Z,0.565186
2023-03-07T05:01:18.070Z,0.534973
2023-03-07T05:04:43.280Z,0.605469
2023-03-07T05:08:08.434Z,0.595398
2023-03-07T05:11:33.655Z,0.61554
2023-03-07T05:14:58.862Z,0.645752
2023-03-07T05:18:24.076Z,0.655823
2023-03-07T05:21:49.309Z,0.726318
2023-03-07T05:25:14.466Z,0.756531
2023-03-07T05:28:39.693Z,0.645752
2023-03-07T05:32:04.927Z,0.675964
2023-03-07T05:35:30.158Z,0.645752
2023-03-07T05:38:55.411Z,0.675964
2023-03-07T05:42:20.606Z,0.675964
2023-03-07T05:45:45.802Z,0.716248
2023-03-07T05:49:11.020Z,0.655823
2023-03-07T05:52:36.206Z,0.726318
2023-03-07T05:56:01.464Z,0.696106
2023-03-07T05:59:26.678Z,0.74646
2023-03-07T06:02:51.914Z,0.907593
2023-03-07T06:06:17.078Z,0.86731
2023-03-07T06:09:42.291Z,0.957947
2023-03-07T06:13:07.549Z,0.927734
2023-03-07T06:16:32.697Z,0.99823
2023-03-07T06:19:57.902Z,1.088867
2023-03-07T06:23:23.087Z,1.038513
2023-03-07T06:26:48.266Z,0.99823
2023-03-07T06:30:13.545Z,0.978088
2023-03-07T06:33:38.703Z,0.99823
2023-03-07T06:37:03.897Z,1.018372
2023-03-07T06:40:29.090Z,0.99823
2023-03-07T06:43:54.279Z,1.078796
2023-03-07T06:47:19.498Z,1.139221
2023-03-07T06:50:44.644Z,1.159363
2023-03-07T06:54:09.844Z,1.199646
2023-03-07T06:57:35.020Z,1.058655
2023-03-07T07:01:00.213Z,1.109009
2023-03-07T07:04:25.539Z,1.109009
2023-03-07T07:07:50.582Z,1.159363
2023-03-07T07:11:15.766Z,1.229858
2023-03-07T07:14:40.989Z,1.360779
2023-03-07T07:18:06.162Z,1.451416
2023-03-07T07:21:31.389Z,1.330566
2023-03-07T07:24:56.577Z,1.239929
2023-03-07T07:28:21.799Z,1.300354
2023-03-07T07:31:47.079Z,1.320496
2023-03-07T07:35:12.220Z,1.340637
2023-03-07T07:38:37.463Z,1.411133
2023-03-07T07:42:02.644Z,1.360779
2023-03-07T07:45:27.860Z,1.360779
2023-03-07T07:48:53.075Z,1.300354
2023-03-07T07:52:18.292Z,1.270142
2023-03-07T07:55:43.558Z,1.360779
2023-03-07T07:59:08.705Z,1.330566
2023-03-07T08:02:33.930Z,1.441345
2023-03-07T08:05:59.327Z,1.441345
2023-03-07T08:09:24.659Z,1.441345
2023-03-07T08:12:50.058Z,1.441345
2023-03-07T08:16:15.335Z,1.542053
2023-03-07T08:19:40.525Z,1.602478
2023-03-07T08:23:05.759Z,1.662903
2023-03-07T08:26:30.969Z,1.703186
2023-03-07T08:29:56.280Z,1.813965
2023-03-07T08:33:21.472Z,1.803894
2023-03-07T08:36:46.694Z,1.803894
2023-03-07T08:40:11.933Z,1.844177
2023-03-07T08:43:37.186Z,1.834106
2023-03-07T08:47:02.433Z,1.813965
2023-03-07T08:50:27.738Z,1.834106
2023-03-07T08:53:52.814Z,1.88446
2023-03-07T08:57:18.068Z,1.914673
2023-03-07T09:00:43.281Z,1.995239
2023-03-07T09:04:08.553Z,1.904602
2023-03-07T09:07:33.721Z,1.723328
2023-03-07T09:10:58.906Z,1.773682
2023-03-07T09:14:24.122Z,1.934814
2023-03-07T09:17:49.346Z,2.085876
2023-03-07T09:21:14.565Z,2.116089
2023-03-07T09:24:39.742Z,2.116089
2023-03-07T09:28:04.965Z,2.116089
2023-03-07T09:31:30.188Z,2.297363
2023-03-07T09:34:55.402Z,2.357788
2023-03-07T09:38:20.648Z,2.408142
2023-03-07T09:41:45.802Z,2.428284
2023-03-07T09:45:10.993Z,2.408142
2023-03-07T09:48:36.200Z,2.408142
2023-03-07T09:52:01.432Z,2.488708
2023-03-07T09:55:26.674Z,2.539062
2023-03-07T09:58:51.845Z,2.659912
2023-03-07T10:02:17.049Z,2.599487
2023-03-07T10:05:42.284Z,2.609558
2023-03-07T10:09:07.487Z,2.690125
2023-03-07T10:12:32.695Z,2.639771
2023-03-07T10:15:57.911Z,2.720337
2023-03-07T10:19:23.126Z,2.659912
2023-03-07T10:22:48.370Z,2.639771
2023-03-07T10:26:13.580Z,2.599487
2023-03-07T10:29:38.801Z,2.669983
2023-03-07T10:33:03.965Z,2.770691
2023-03-07T10:36:29.224Z,2.931824
2023-03-07T10:39:54.400Z,2.821045
2023-03-07T10:43:19.618Z,2.921753
2023-03-07T10:46:55.138Z,3.143311
2023-03-07T10:50:10.051Z,3.284302
2023-03-07T10:53:35.748Z,3.425293
2023-03-07T10:57:00.537Z,3.505859
2023-03-07T11:00:25.697Z,3.646851
2023-03-07T11:03:53.761Z,3.797913
2023-03-07T11:07:16.115Z,3.858337
2023-03-07T11:10:41.343Z,3.858337
2023-03-07T11:14:06.566Z,3.838196
2023-03-07T11:17:31.787Z,3.838196
2023-03-07T11:20:57.000Z,3.797913
2023-03-07T11:24:22.256Z,3.858337
2023-03-07T11:27:47.428Z,3.828125
2023-03-07T11:31:12.700Z,3.797913
2023-03-07T11:34:37.878Z,3.787842
2023-03-07T11:38:03.114Z,3.777771
2023-03-07T11:41:28.268Z,3.787842
2023-03-07T11:44:53.606Z,3.898621
2023-03-07T11:48:18.814Z,3.938904
2023-03-07T11:51:44.080Z,3.878479
2023-03-07T11:55:09.355Z,3.787842
2023-03-07T11:58:34.562Z,3.868408
2023-03-07T12:01:59.823Z,3.868408
2023-03-07T12:05:25.149Z,3.797913
2023-03-07T12:08:50.358Z,3.727417
2023-03-07T12:12:15.579Z,3.646851
2023-03-07T12:15:40.779Z,3.687134
2023-03-07T12:19:05.996Z,3.546143
2023-03-07T12:22:31.230Z,3.51593
2023-03-07T12:25:56.443Z,3.536072
2023-03-07T12:29:21.678Z,3.606567
2023-03-07T12:32:47.160Z,3.677063
2023-03-07T12:36:12.410Z,3.536072
2023-03-07T12:39:37.536Z,3.51593
2023-03-07T12:43:02.710Z,3.646851
2023-03-07T12:46:27.980Z,3.757629
2023-03-07T12:49:53.122Z,3.677063
2023-03-07T12:53:18.307Z,3.606567
2023-03-07T12:56:43.521Z,3.566284
2023-03-07T13:00:08.711Z,3.576355
2023-03-07T13:03:34.032Z,3.536072
2023-03-07T13:06:59.108Z,3.546143
2023-03-07T13:10:24.316Z,3.536072
2023-03-07T13:13:49.543Z,3.596497
2023-03-07T13:17:14.728Z,3.687134
2023-03-07T13:20:40.063Z,3.727417
2023-03-07T13:24:05.145Z,3.747559
2023-03-07T13:27:30.360Z,3.797913
2023-03-07T13:30:55.595Z,3.797913
2023-03-07T13:34:20.837Z,3.797913
2023-03-07T13:37:46.065Z,3.757629
2023-03-07T13:41:11.233Z,3.828125
2023-03-07T13:44:36.450Z,3.797913
2023-03-07T13:48:01.661Z,3.838196
2023-03-07T13:51:28.905Z,3.928833
2023-03-07T13:54:52.149Z,4.01947
2023-03-07T13:58:17.453Z,4.089966
2023-03-07T14:01:42.917Z,4.200745
2023-03-07T14:05:08.141Z,4.291382
2023-03-07T14:08:33.424Z,4.402161
2023-03-07T14:11:58.694Z,4.452515
2023-03-07T14:15:23.859Z,4.482727
2023-03-07T14:18:49.038Z,4.452515
2023-03-07T14:22:14.259Z,4.502869
2023-03-07T14:25:39.487Z,4.452515
2023-03-07T14:29:04.705Z,4.402161
2023-03-07T15:05:03.716Z,4.14032
2023-03-07T15:08:28.909Z,4.039612
2023-03-07T15:11:54.152Z,4.049683
2023-03-07T15:15:19.406Z,3.979187
2023-03-07T15:18:45.239Z,3.838196
2023-03-07T15:22:10.532Z,3.777771
2023-03-07T15:25:35.727Z,3.687134
2023-03-07T15:29:00.947Z,3.677063
2023-03-07T15:32:26.241Z,3.677063
2023-03-07T15:35:51.506Z,3.656921
2023-03-07T15:39:16.747Z,3.797913
2023-03-07T15:42:41.985Z,3.697205
2023-03-07T15:46:07.302Z,3.717346
2023-03-07T15:49:32.449Z,3.727417
2023-03-07T15:52:57.721Z,3.747559
2023-03-07T15:56:23.020Z,3.596497
2023-03-07T15:59:48.221Z,3.576355
2023-03-07T16:03:13.592Z,3.596497
2023-03-07T16:06:38.707Z,3.495789
2023-03-07T16:10:04.995Z,3.596497
2023-03-07T16:13:31.738Z,3.677063
2023-03-07T16:16:57.027Z,3.697205
2023-03-07T16:20:22.143Z,3.757629
2023-03-07T16:23:47.347Z,3.838196
2023-03-07T16:27:12.570Z,3.677063
2023-03-07T16:30:37.844Z,3.536072
2023-03-07T16:34:02.978Z,3.475647
2023-03-07T16:37:28.255Z,3.505859
2023-03-07T16:40:53.533Z,3.364868
2023-03-07T16:44:18.783Z,3.354797
2023-03-07T16:47:43.999Z,3.244019
2023-03-07T16:51:09.224Z,3.103027
2023-03-07T16:54:34.433Z,3.032532
2023-03-07T16:57:59.651Z,2.972107
2023-03-07T17:01:24.961Z,2.851257
2023-03-07T17:04:50.168Z,2.851257
2023-03-07T17:08:15.338Z,2.780762
2023-03-07T17:11:40.538Z,2.659912
2023-03-07T17:15:05.730Z,2.539062
2023-03-07T17:18:30.945Z,2.539062
2023-03-07T17:21:56.190Z,2.528992
2023-03-07T17:25:21.364Z,2.488708
2023-03-07T17:28:46.577Z,2.528992
2023-03-07T17:32:11.859Z,2.518921
2023-03-07T17:35:37.025Z,2.478638
2023-03-07T17:39:02.243Z,2.488708
2023-03-07T17:42:27.413Z,2.559204
2023-03-07T17:45:52.691Z,2.6297
2023-03-07T17:49:17.839Z,2.669983
2023-03-07T17:52:43.084Z,2.659912
2023-03-07T17:56:08.496Z,2.710266
2023-03-07T17:59:33.470Z,2.690125
2023-03-07T18:02:58.728Z,2.780762
2023-03-07T18:06:23.888Z,2.790833
2023-03-07T18:09:56.038Z,2.821045
2023-03-07T18:13:14.560Z,2.821045
2023-03-07T18:16:39.836Z,2.841187
2023-03-07T18:20:05.163Z,2.821045
2023-03-07T18:23:30.509Z,2.780762
2023-03-07T18:26:55.868Z,2.810974
2023-03-07T18:30:21.218Z,2.871399
2023-03-07T18:33:46.618Z,2.871399
2023-03-07T18:37:11.918Z,2.891541
2023-03-07T18:40:37.276Z,2.921753
2023-03-07T18:44:02.668Z,2.921753
2023-03-07T18:47:28.025Z,2.891541
2023-03-07T18:50:53.370Z,2.810974
2023-03-07T18:54:18.709Z,2.821045
2023-03-07T18:57:44.093Z,2.871399
2023-03-07T19:01:09.426Z,2.821045
2023-03-07T19:04:34.822Z,2.841187
2023-03-07T19:08:00.137Z,2.921753
2023-03-07T19:11:25.442Z,2.841187
2023-03-07T19:14:50.814Z,2.790833
2023-03-07T19:18:16.113Z,2.851257
2023-03-07T19:21:41.541Z,2.851257
2023-03-07T19:25:06.930Z,2.921753
2023-03-07T19:28:32.360Z,2.821045
2023-03-07T19:31:57.839Z,2.790833
2023-03-07T19:35:23.079Z,2.851257
2023-03-07T19:38:48.440Z,2.810974
2023-03-07T19:42:13.846Z,2.810974
2023-03-07T19:45:39.194Z,2.821045
2023-03-07T19:49:04.512Z,2.790833
2023-03-07T19:52:29.872Z,2.871399
2023-03-07T19:55:55.206Z,2.871399
2023-03-07T19:59:20.533Z,2.770691
2023-03-07T20:02:45.892Z,2.780762
2023-03-07T20:06:11.280Z,2.810974
2023-03-07T20:09:36.615Z,2.770691
2023-03-07T20:13:02.078Z,2.770691
2023-03-07T20:16:27.343Z,2.770691
2023-03-07T20:19:52.693Z,2.659912
2023-03-07T20:23:18.045Z,2.609558
2023-03-07T20:26:43.361Z,2.710266
2023-03-07T20:30:08.715Z,2.6297
2023-03-07T20:33:34.068Z,2.710266
2023-03-07T20:36:59.404Z,2.659912
2023-03-07T20:40:24.710Z,2.710266
2023-03-07T20:43:50.032Z,2.669983
2023-03-07T20:47:15.439Z,2.710266
2023-03-07T20:50:40.679Z,2.720337
2023-03-07T20:54:05.988Z,2.790833
2023-03-07T20:57:31.289Z,2.841187
2023-03-07T21:00:56.593Z,2.891541
2023-03-07T21:04:21.814Z,2.659912
2023-03-07T21:07:46.975Z,2.710266
2023-03-07T21:11:12.174Z,2.659912
2023-03-07T21:14:37.380Z,2.669983
2023-03-07T21:18:02.573Z,2.599487
2023-03-07T21:21:27.791Z,2.599487
2023-03-07T21:24:52.990Z,2.569275
2023-03-07T21:28:18.196Z,2.6297
2023-03-07T21:31:43.471Z,2.6297
2023-03-07T21:35:08.618Z,2.710266
2023-03-07T21:38:33.849Z,2.750549
2023-03-07T21:41:59.033Z,2.710266
2023-03-07T21:45:25.609Z,2.599487
2023-03-07T21:48:49.454Z,2.639771
2023-03-07T21:52:14.647Z,2.720337
2023-03-07T21:55:39.861Z,2.6297
2023-03-07T21:59:05.056Z,2.639771
2023-03-07T22:02:30.272Z,2.669983
2023-03-07T22:05:57.283Z,2.720337
2023-03-07T22:09:20.683Z,2.750549
2023-03-07T22:12:45.884Z,2.790833
2023-03-07T22:16:11.090Z,2.841187
2023-03-07T22:19:36.277Z,2.951965
2023-03-07T22:23:01.454Z,3.082886
2023-03-07T22:26:26.662Z,3.103027
2023-03-07T22:29:51.916Z,3.032532
2023-03-07T22:33:17.044Z,2.992249
2023-03-07T22:36:42.251Z,2.931824
2023-03-07T22:40:07.474Z,2.780762
2023-03-07T22:43:32.678Z,2.750549
2023-03-07T22:46:57.924Z,2.669983
2023-03-07T22:50:23.072Z,2.6297
2023-03-07T22:53:48.243Z,2.639771
2023-03-07T22:57:13.458Z,2.609558
2023-03-07T23:00:38.676Z,2.609558
2023-03-07T23:04:03.905Z,2.488708
2023-03-07T23:07:29.085Z,2.418213
2023-03-07T23:10:54.302Z,2.388
2023-03-07T23:14:19.496Z,2.337646
2023-03-07T23:17:44.729Z,2.347717
2023-03-07T23:21:09.954Z,2.388
2023-03-07T23:24:35.113Z,2.357788
2023-03-07T23:28:00.339Z,2.408142
2023-03-07T23:31:25.627Z,2.488708
2023-03-07T23:34:50.731Z,2.458496
2023-03-07T23:38:15.966Z,2.488708
2023-03-07T23:41:41.121Z,2.458496
2023-03-07T23:45:06.316Z,2.448425
2023-03-07T23:48:31.521Z,2.337646
2023-03-07T23:51:56.718Z,2.297363
2023-03-07T23:55:21.942Z,2.236938
2023-03-07T23:58:47.094Z,2.13623
